EIDWLDDU

Guest
Details From EIDW - Dublin
To LDDU - DUBROVNIK
Flight Number -
Tags decoded
Created
Modified
Stats Distance 1,173 nm / 2,172 km
Max Altitude 0 ft / 0 m
Waypoints 2
Social Downloads 0
Likes 0
Share VATSIM

Download

Looking for another format? Having issues loading an existing format? Contact us
Advertisement - Login to hide

Notes

Requested: EIDW LDDU

Route

EIDW LDDU

ID Type Via Altitude Latitude Longitude Leg Dist Tot Dist Heading (true) Name
O EIDW APT - 0 ft / 0 m 53.42826˚ -6.25955˚ - 0 nm - Dublin
O LDDU APT - 0 ft / 0 m 42.56284˚ 18.26450˚ 1172 nm 1172 nm 114° / 132° DUBROVNIK

Altitude Profile

Advertisement - Login to hide

Weather


0- 5 10 15 20 25 30 35+ Temperature / ° C

Clouds and Precipitation
Forecast for 2018-05-25 12:00 UTC. Updated 24 minutes ago

Ground ~20,000 ft ~40,000 ft Winds

EIDW

Details ICAO EIDW (DUB)
Name Dublin
Region Ireland
Timezone Europe/Dublin (UTC+1.0)
Stats Elevation 242 ft / 74 m (AMSL)
Location 53.428264° -6.259550°
Runways 3
Magnetic Variation 2.950° W

METAR

EIDW 251130Z 02019KT 9999 FEW035 SCT250 20/09 Q1023 NOSIG

Decode

TAF

TAF EIDW 250500Z 2506/2606 02009KT 9999 FEW030 SCT050 BECMG 2509/2512 02014KT PROB40 TEMPO 2512/2518 02015G25KT TEMPO 2523/2606 5000 -RADZ BKN015

Decode

Departure Runways

ID Width Length Bearing (true) Bearing (mag) Surface Threshold Offset Overrun Length
10 148 ft / 45 m 8,625 ft / 2,629 m 95.25° 98.20° Concrete 0 ft / 0 m 0 ft / 0 m
11 200 ft / 61 m 4,380 ft / 1,335 m 105.01° 107.96° Asphalt 279 ft / 85 m 0 ft / 0 m
16 200 ft / 61 m 6,791 ft / 2,070 m 156.64° 159.59° Asphalt 0 ft / 0 m 0 ft / 0 m
28 148 ft / 45 m 8,625 ft / 2,629 m 275.28° 278.23° Concrete 0 ft / 0 m 0 ft / 0 m
29 200 ft / 61 m 4,380 ft / 1,335 m 285.02° 287.97° Asphalt 0 ft / 0 m 0 ft / 0 m
34 200 ft / 61 m 6,791 ft / 2,070 m 336.65° 339.60° Asphalt 0 ft / 0 m 0 ft / 0 m

LDDU

Details ICAO LDDU (DBV)
Name DUBROVNIK
Region Croatia
Timezone Europe/Zagreb (UTC+2.0)
Stats Elevation 527 ft / 161 m (AMSL)
Location 42.562840° 18.264499°
Runways 1
Magnetic Variation 4.147° E

METAR

LDDU 251130Z 21006KT 150V310 9999 FEW035 25/16 Q1014 NOSIG

Decode

TAF

TAF TAF LDDU 250525Z 2506/2606 24008KT 9999 FEW035 TX25/2511Z TN20/2603Z TEMPO 2512/2516 FEW033TCU BECMG 2513/2515 29008KT PROB30 TEMPO 2513/2517 TS FEW030CB BECMG 2517/2519 02009KT

Decode

Destination Runways

ID Width Length Bearing (true) Bearing (mag) Surface Threshold Offset Overrun Length
12 148 ft / 45 m 10,803 ft / 3,293 m 118.30° 114.15° Asphalt 488 ft / 149 m 100 ft / 30 m
30 148 ft / 45 m 10,803 ft / 3,293 m 298.33° 294.18° Asphalt 0 ft / 0 m 100 ft / 30 m

Approach Navaids

Runway Type Ident Frequency Range Bearing (true) Bearing (mag) Slope Elevation
12 Localiser IDU 110.10 MHz 25 nm / 46 km 118.21° 114.06° - 469 ft / 143 m (AMSL)
12 Glidescope IDU 110.10 MHz 25 nm / 46 km 118.21° 114.06° 3.00° 502 ft / 153 m (AMSL)

Popular Alternatives